createdAt,value
2018-11-26T00:01:39.273Z,78.47
2018-11-26T00:04:07.464Z,78.69
2018-11-26T00:06:35.643Z,78.64
2018-11-26T00:09:03.932Z,78.79
2018-11-26T00:11:34.248Z,78.96
2018-11-26T00:14:02.439Z,79.02
2018-11-26T00:16:30.633Z,78.93
2018-11-26T00:18:58.852Z,79.09
2018-11-26T00:21:27.052Z,78.88
2018-11-26T00:23:55.223Z,78.52
2018-11-26T00:26:23.436Z,78.51
2018-11-26T00:28:51.661Z,78.50
2018-11-26T00:31:20.409Z,78.76
2018-11-26T00:33:48.640Z,78.45
2018-11-26T00:36:16.823Z,78.74
2018-11-26T00:38:45.025Z,78.82
2018-11-26T00:41:13.204Z,79.08
2018-11-26T00:43:41.404Z,78.90
2018-11-26T00:46:09.611Z,78.92
2018-11-26T00:48:37.801Z,78.74
2018-11-26T00:51:06.650Z,78.57
2018-11-26T00:53:34.888Z,78.71
2018-11-26T00:56:03.067Z,78.59
2018-11-26T00:58:31.276Z,78.54
2018-11-26T01:00:59.470Z,78.71
2018-11-26T01:03:27.695Z,78.63
2018-11-26T01:05:55.928Z,78.54
2018-11-26T01:08:24.132Z,78.52
2018-11-26T01:10:52.355Z,78.81
2018-11-26T01:13:20.561Z,78.68
2018-11-26T01:15:48.774Z,79.14
2018-11-26T01:18:16.972Z,78.95
2018-11-26T01:20:45.176Z,78.91
2018-11-26T01:23:13.379Z,79.00
2018-11-26T01:25:41.557Z,78.98
2018-11-26T01:28:09.733Z,79.08
2018-11-26T01:30:37.937Z,79.23
2018-11-26T01:33:06.284Z,79.11
2018-11-26T01:35:34.513Z,79.73
2018-11-26T01:38:02.689Z,79.51
2018-11-26T01:40:36.134Z,79.32
2018-11-26T01:43:04.338Z,79.59
2018-11-26T01:45:32.555Z,79.35
2018-11-26T01:48:00.738Z,79.19
2018-11-26T01:50:28.903Z,79.25
2018-11-26T01:52:57.076Z,79.52
2018-11-26T01:55:25.263Z,79.67
2018-11-26T01:57:53.473Z,79.61
2018-11-26T02:00:24.014Z,79.63
2018-11-26T02:02:52.242Z,79.37
2018-11-26T02:05:20.437Z,79.39
2018-11-26T02:07:48.647Z,79.44
2018-11-26T02:10:18.990Z,79.38
2018-11-26T02:12:47.220Z,79.63
2018-11-26T02:15:26.651Z,79.07
2018-11-26T02:17:54.884Z,79.02
2018-11-26T02:20:23.076Z,78.65
2018-11-26T02:22:51.298Z,78.78
2018-11-26T02:25:19.518Z,78.69
2018-11-26T02:27:47.701Z,78.58
2018-11-26T02:30:15.903Z,78.24
2018-11-26T02:32:44.101Z,78.38
2018-11-26T02:35:12.319Z,78.32
2018-11-26T02:37:40.549Z,78.26
2018-11-26T02:40:10.683Z,78.10
2018-11-26T02:42:38.885Z,78.15
2018-11-26T02:45:07.128Z,78.03
2018-11-26T02:47:35.329Z,78.16
2018-11-26T02:50:03.564Z,78.08
2018-11-26T02:52:31.784Z,78.43
2018-11-26T02:54:59.998Z,78.08
2018-11-26T02:57:28.220Z,77.76
2018-11-26T02:59:56.414Z,77.98
2018-11-26T03:02:24.591Z,77.98
2018-11-26T03:04:52.764Z,77.82
2018-11-26T03:07:20.953Z,78.10
2018-11-26T03:09:49.140Z,77.88
2018-11-26T03:12:17.304Z,77.93
2018-11-26T03:14:45.500Z,78.39
2018-11-26T03:17:13.702Z,78.57
2018-11-26T03:19:41.925Z,78.47
2018-11-26T03:22:10.101Z,78.31
2018-11-26T03:24:38.277Z,78.49
2018-11-26T03:27:06.684Z,78.62
2018-11-26T03:29:35.043Z,78.50
2018-11-26T03:32:03.236Z,78.85
2018-11-26T03:34:31.406Z,79.12
2018-11-26T03:36:59.599Z,79.15
2018-11-26T03:39:27.753Z,78.83
2018-11-26T03:41:55.929Z,78.89
2018-11-26T03:44:24.127Z,78.85
2018-11-26T03:46:52.307Z,79.07
2018-11-26T03:49:20.479Z,79.00
2018-11-26T03:51:48.630Z,79.30
2018-11-26T03:54:16.821Z,79.32
2018-11-26T03:56:45.024Z,79.44
2018-11-26T03:59:13.185Z,79.42
2018-11-26T04:01:41.422Z,79.47
2018-11-26T04:04:09.593Z,79.44
2018-11-26T04:06:37.810Z,79.16
2018-11-26T04:09:07.688Z,79.41
2018-11-26T04:11:36.255Z,79.77
2018-11-26T04:14:04.432Z,79.64
2018-11-26T04:16:32.616Z,79.83
2018-11-26T04:19:00.794Z,79.61
2018-11-26T04:21:28.968Z,79.80
2018-11-26T04:23:57.151Z,79.68
2018-11-26T04:26:25.326Z,79.51
2018-11-26T04:28:53.513Z,79.49
2018-11-26T04:31:21.684Z,79.49
2018-11-26T04:33:49.865Z,79.44
2018-11-26T04:36:18.036Z,79.61
2018-11-26T04:38:46.231Z,79.70
2018-11-26T04:41:14.432Z,79.62
2018-11-26T04:43:42.605Z,79.83
2018-11-26T04:46:10.790Z,80.06
2018-11-26T04:48:39.022Z,80.08
2018-11-26T04:51:07.277Z,80.15
2018-11-26T04:53:35.396Z,80.10
2018-11-26T04:56:03.571Z,80.46
2018-11-26T04:58:31.752Z,80.34
2018-11-26T05:00:59.947Z,80.25
2018-11-26T05:03:28.153Z,80.29
2018-11-26T05:05:56.367Z,80.21
2018-11-26T05:08:24.532Z,80.11
2018-11-26T05:10:52.727Z,80.20
2018-11-26T05:13:20.915Z,79.85
2018-11-26T05:15:49.159Z,79.77
2018-11-26T05:18:17.349Z,79.49
2018-11-26T05:20:45.760Z,79.14
2018-11-26T05:23:13.963Z,79.13
2018-11-26T05:25:42.135Z,79.00
2018-11-26T05:28:10.338Z,79.28
2018-11-26T05:30:38.502Z,78.97
2018-11-26T05:33:07.262Z,79.21
2018-11-26T05:35:35.551Z,79.24
2018-11-26T05:38:03.755Z,79.04
2018-11-26T05:40:31.911Z,78.82
2018-11-26T05:43:00.133Z,78.86
2018-11-26T05:45:28.319Z,78.82
2018-11-26T05:47:56.526Z,78.74
2018-11-26T05:50:24.732Z,78.92
2018-11-26T05:52:52.951Z,79.06
2018-11-26T05:55:21.385Z,78.87
2018-11-26T05:57:49.507Z,79.02
2018-11-26T06:00:27.264Z,79.07
2018-11-26T06:02:55.479Z,78.94
2018-11-26T06:05:23.657Z,79.04
2018-11-26T06:07:51.827Z,79.12
2018-11-26T06:10:20.020Z,78.97
2018-11-26T06:12:48.228Z,78.79
2018-11-26T06:15:16.421Z,79.35
2018-11-26T06:17:44.617Z,78.97
2018-11-26T06:20:13.411Z,79.25
2018-11-26T06:22:43.087Z,79.20
2018-11-26T06:25:13.868Z,79.05
2018-11-26T06:27:48.600Z,79.14
2018-11-26T06:30:18.010Z,79.11
2018-11-26T06:32:46.169Z,79.30
2018-11-26T06:35:16.468Z,79.25
2018-11-26T06:37:44.665Z,78.89
2018-11-26T06:40:13.448Z,79.09
2018-11-26T06:42:41.661Z,78.97
2018-11-26T06:45:13.296Z,78.78
2018-11-26T06:47:42.093Z,78.89
2018-11-26T06:50:11.912Z,78.80
2018-11-26T06:52:40.182Z,78.42
2018-11-26T06:55:10.283Z,78.56
2018-11-26T06:57:38.513Z,78.50
2018-11-26T07:00:10.153Z,78.72
2018-11-26T07:02:38.444Z,78.64
2018-11-26T07:05:12.173Z,78.64
2018-11-26T07:07:40.367Z,78.31
2018-11-26T07:10:09.581Z,78.32
2018-11-26T07:12:37.820Z,78.05
2018-11-26T07:15:08.404Z,78.15
2018-11-26T07:17:36.595Z,77.97
2018-11-26T07:20:07.180Z,77.68
2018-11-26T07:22:35.356Z,77.71
2018-11-26T07:25:03.588Z,77.62
2018-11-26T07:27:31.765Z,77.93
2018-11-26T07:29:59.964Z,78.00
2018-11-26T07:32:28.140Z,77.84
2018-11-26T07:34:56.339Z,77.91
2018-11-26T07:37:24.508Z,78.18
2018-11-26T07:39:52.691Z,78.04
2018-11-26T07:42:20.882Z,77.89
2018-11-26T07:44:49.091Z,77.79
2018-11-26T07:47:17.353Z,77.97
2018-11-26T07:49:45.516Z,77.42
2018-11-26T07:52:13.732Z,77.57
2018-11-26T07:54:41.932Z,77.80
2018-11-26T07:57:10.134Z,77.76
2018-11-26T07:59:38.316Z,77.93
2018-11-26T08:02:06.536Z,78.10
2018-11-26T08:04:34.725Z,78.00
2018-11-26T08:07:02.925Z,78.17
2018-11-26T08:09:31.147Z,77.80
2018-11-26T08:11:59.345Z,77.88
2018-11-26T08:14:27.535Z,77.67
2018-11-26T08:16:55.712Z,77.60
2018-11-26T08:19:23.883Z,77.61
2018-11-26T08:21:52.059Z,77.60
2018-11-26T08:24:20.246Z,77.66
2018-11-26T08:26:48.427Z,77.72
2018-11-26T08:29:16.624Z,77.50
2018-11-26T08:31:44.805Z,77.08
2018-11-26T08:34:13.037Z,77.34
2018-11-26T08:36:43.213Z,77.02
2018-11-26T08:39:16.599Z,76.85
2018-11-26T08:41:50.166Z,77.23
2018-11-26T08:46:25.461Z,77.44
2018-11-26T08:48:58.915Z,77.46
2018-11-26T08:51:27.184Z,77.67
2018-11-26T08:53:55.345Z,77.27
2018-11-26T08:56:23.637Z,77.53
2018-11-26T08:58:51.830Z,77.49
2018-11-26T09:01:24.229Z,76.85
2018-11-26T09:03:56.388Z,76.63
2018-11-26T09:06:24.695Z,77.19
2018-11-26T09:08:52.875Z,76.52
2018-11-26T09:11:21.109Z,76.35
2018-11-26T09:13:49.327Z,76.17
2018-11-26T09:16:17.552Z,76.64
2018-11-26T09:18:45.773Z,76.55
2018-11-26T09:21:13.999Z,76.85
2018-11-26T09:23:42.176Z,76.45
2018-11-26T09:26:10.372Z,76.23
2018-11-26T09:28:38.559Z,76.48
2018-11-26T09:31:06.777Z,76.35
2018-11-26T09:33:35.008Z,76.25
2018-11-26T09:36:03.225Z,76.04
2018-11-26T09:38:31.412Z,76.18
2018-11-26T09:40:59.589Z,76.20
2018-11-26T09:43:27.816Z,76.46
2018-11-26T09:45:55.988Z,76.72
2018-11-26T09:48:24.195Z,76.05
2018-11-26T09:50:52.400Z,75.80
2018-11-26T09:53:20.579Z,75.39
2018-11-26T09:55:48.848Z,73.88
2018-11-26T09:58:17.073Z,74.21
2018-11-26T10:00:45.265Z,73.98
2018-11-26T10:03:13.467Z,74.43
2018-11-26T10:05:41.681Z,74.37
2018-11-26T10:08:09.828Z,74.35
2018-11-26T10:10:38.002Z,74.69
2018-11-26T10:13:07.027Z,73.82
2018-11-26T10:15:35.191Z,73.67
2018-11-26T10:18:03.369Z,74.32
2018-11-26T10:20:31.543Z,72.80
2018-11-26T10:22:59.703Z,73.14
2018-11-26T10:25:27.879Z,73.36
2018-11-26T10:27:56.057Z,73.47
2018-11-26T10:30:24.722Z,73.41
2018-11-26T10:32:53.511Z,72.79
2018-11-26T10:35:22.079Z,72.79
2018-11-26T10:37:50.239Z,72.64
2018-11-26T10:40:26.217Z,72.89
2018-11-26T10:42:54.502Z,72.63
2018-11-26T10:45:23.723Z,72.99
2018-11-26T10:47:51.974Z,71.87
2018-11-26T10:50:21.836Z,72.37
2018-11-26T10:52:51.353Z,72.44
2018-11-26T10:55:20.861Z,73.01
2018-11-26T10:57:49.031Z,72.89
2018-11-26T11:00:22.701Z,72.72
2018-11-26T11:02:51.464Z,72.66
2018-11-26T11:05:19.693Z,72.78
2018-11-26T11:07:47.932Z,73.01
2018-11-26T11:10:17.621Z,72.75
2018-11-26T11:12:45.845Z,72.94
2018-11-26T11:15:14.176Z,72.92
2018-11-26T11:17:42.426Z,73.28
2018-11-26T11:20:15.687Z,73.07
2018-11-26T11:22:43.948Z,73.02
2018-11-26T11:25:13.132Z,73.36
2018-11-26T11:27:41.472Z,73.56
2018-11-26T11:30:14.985Z,73.84
2018-11-26T11:32:43.231Z,73.98
2018-11-26T11:35:13.176Z,73.52
2018-11-26T11:37:42.019Z,74.12
2018-11-26T11:40:23.089Z,74.04
2018-11-26T11:42:51.273Z,75.04
2018-11-26T11:45:19.706Z,75.47
2018-11-26T11:47:47.953Z,75.38
2018-11-26T11:50:18.425Z,75.81
2018-11-26T11:52:46.802Z,75.57
2018-11-26T11:55:16.035Z,75.78
2018-11-26T11:57:44.233Z,75.90
2018-11-26T12:00:22.268Z,76.25
2018-11-26T12:02:50.512Z,76.01
2018-11-26T12:05:18.680Z,76.38
2018-11-26T12:07:46.851Z,76.86
2018-11-26T12:10:15.026Z,76.68
2018-11-26T12:12:43.189Z,76.99
2018-11-26T12:15:15.625Z,76.94
2018-11-26T12:17:44.452Z,76.92
2018-11-26T12:20:13.539Z,76.14
2018-11-26T12:22:42.073Z,76.30
2018-11-26T12:25:17.313Z,76.59
2018-11-26T12:27:45.508Z,76.82
2018-11-26T12:30:15.781Z,76.54
2018-11-26T12:32:43.977Z,76.81
2018-11-26T12:35:12.173Z,76.90
2018-11-26T12:37:40.342Z,76.35
2018-11-26T12:40:16.403Z,76.68
2018-11-26T12:42:44.582Z,76.68
2018-11-26T12:45:17.438Z,76.87
2018-11-26T12:47:45.688Z,76.56
2018-11-26T12:50:13.870Z,76.47
2018-11-26T12:52:43.214Z,76.82
2018-11-26T12:55:13.697Z,76.37
2018-11-26T12:57:42.785Z,76.26
2018-11-26T13:00:16.110Z,76.30
2018-11-26T13:02:45.168Z,75.97
2018-11-26T13:05:15.614Z,76.47
2018-11-26T13:07:43.801Z,76.26
2018-11-26T13:10:13.894Z,75.87
2018-11-26T13:12:42.173Z,76.19
2018-11-26T13:15:14.269Z,75.75
2018-11-26T13:17:42.476Z,75.90
2018-11-26T13:20:14.386Z,75.50
2018-11-26T13:22:42.625Z,75.67
2018-11-26T13:25:11.941Z,75.26
2018-11-26T13:27:41.636Z,75.91
2018-11-26T13:30:14.840Z,76.02
2018-11-26T13:32:44.054Z,75.69
2018-11-26T13:35:13.357Z,74.76
2018-11-26T13:37:41.534Z,74.75
2018-11-26T13:40:11.916Z,74.15
2018-11-26T13:42:40.393Z,74.08
2018-11-26T13:45:11.164Z,74.24
2018-11-26T13:47:39.641Z,74.31
2018-11-26T13:50:13.460Z,73.95
2018-11-26T13:52:41.705Z,73.91
2018-11-26T13:55:11.708Z,74.30
2018-11-26T13:57:39.889Z,74.08
2018-11-26T14:00:10.000Z,73.41
2018-11-26T14:02:38.303Z,74.01
2018-11-26T14:05:08.271Z,73.56
2018-11-26T14:07:36.521Z,73.79
2018-11-26T14:10:07.138Z,73.98
2018-11-26T14:12:35.309Z,73.79
2018-11-26T14:15:03.549Z,74.15
2018-11-26T14:17:31.811Z,74.23
2018-11-26T14:19:59.969Z,74.04
2018-11-26T14:22:28.271Z,73.93
2018-11-26T14:24:56.470Z,74.05
2018-11-26T14:27:24.769Z,73.86
2018-11-26T14:29:52.981Z,74.19
2018-11-26T14:32:21.507Z,74.12
2018-11-26T14:34:49.681Z,73.93
2018-11-26T14:37:17.860Z,74.30
2018-11-26T14:39:46.161Z,74.07
2018-11-26T14:42:14.346Z,74.16
2018-11-26T14:44:42.522Z,74.81
2018-11-26T14:47:11.697Z,74.15
2018-11-26T14:49:39.881Z,74.55
2018-11-26T14:52:08.069Z,74.69
2018-11-26T14:54:36.278Z,74.73
2018-11-26T14:57:04.631Z,74.83
2018-11-26T14:59:32.805Z,74.82
2018-11-26T15:02:01.768Z,74.96
2018-11-26T15:04:29.932Z,74.80
2018-11-26T15:06:58.122Z,74.76
2018-11-26T15:09:26.276Z,74.95
2018-11-26T15:11:54.470Z,74.92
2018-11-26T15:14:22.700Z,75.12
2018-11-26T15:16:50.899Z,74.90
2018-11-26T15:19:19.060Z,74.91
2018-11-26T15:21:47.236Z,75.12
2018-11-26T15:24:15.390Z,74.78
2018-11-26T15:26:43.545Z,74.67
2018-11-26T15:29:11.699Z,74.42
2018-11-26T15:31:39.888Z,74.60
2018-11-26T15:34:08.092Z,74.81
2018-11-26T15:36:36.243Z,74.95
2018-11-26T15:39:06.846Z,74.63
2018-11-26T15:41:35.017Z,74.67
2018-11-26T15:44:03.206Z,74.54
2018-11-26T15:46:31.389Z,74.41
2018-11-26T15:48:59.568Z,74.60
2018-11-26T15:51:27.774Z,74.39
2018-11-26T15:53:55.965Z,74.28
2018-11-26T15:56:24.166Z,74.44
2018-11-26T15:58:52.334Z,74.29
2018-11-26T16:01:20.489Z,74.58
2018-11-26T16:03:48.648Z,74.55
2018-11-26T16:06:16.861Z,74.15
2018-11-26T16:08:45.055Z,74.41
2018-11-26T16:11:13.316Z,74.52
2018-11-26T16:13:41.494Z,73.86
2018-11-26T16:16:09.670Z,74.38
2018-11-26T16:18:37.833Z,74.02
2018-11-26T16:21:05.998Z,74.27
2018-11-26T16:23:34.151Z,74.24
2018-11-26T16:26:02.313Z,74.24
2018-11-26T16:28:30.622Z,74.41
2018-11-26T16:30:58.793Z,74.31
2018-11-26T16:33:26.964Z,74.71
2018-11-26T16:35:55.145Z,74.75
2018-11-26T16:38:23.338Z,74.82
2018-11-26T16:40:52.559Z,74.62
2018-11-26T16:43:19.677Z,74.63
2018-11-26T16:45:47.845Z,74.76
2018-11-26T16:48:16.022Z,74.55
2018-11-26T16:50:44.204Z,74.81
2018-11-26T16:53:12.390Z,74.51
2018-11-26T16:55:40.574Z,74.47
2018-11-26T16:58:08.753Z,74.65
2018-11-26T17:00:36.937Z,74.79
2018-11-26T17:03:05.295Z,74.82
2018-11-26T17:05:35.082Z,74.70
2018-11-26T17:08:03.722Z,74.58
2018-11-26T17:10:31.989Z,74.77
2018-11-26T17:13:00.214Z,74.75
2018-11-26T17:15:28.432Z,74.79
2018-11-26T17:17:56.608Z,74.83
2018-11-26T17:20:24.786Z,74.87
2018-11-26T17:22:53.089Z,74.76
2018-11-26T17:25:21.329Z,74.95
2018-11-26T17:27:49.973Z,75.10
2018-11-26T17:30:19.443Z,74.67
2018-11-26T17:32:50.146Z,75.14
2018-11-26T17:35:18.503Z,74.92
2018-11-26T17:37:46.872Z,74.93
2018-11-26T17:40:17.213Z,75.39
2018-11-26T17:42:45.494Z,75.52
2018-11-26T17:45:14.645Z,75.03
2018-11-26T17:47:46.038Z,74.77
2018-11-26T17:50:16.678Z,75.52
2018-11-26T17:52:44.857Z,75.07
2018-11-26T17:55:13.132Z,75.62
2018-11-26T17:57:41.432Z,75.48
2018-11-26T18:00:11.407Z,75.78
2018-11-26T18:02:39.627Z,75.37
2018-11-26T18:05:11.347Z,75.38
2018-11-26T18:07:39.622Z,75.36
2018-11-26T18:10:10.544Z,75.36
2018-11-26T18:12:38.728Z,75.57
2018-11-26T18:15:10.212Z,75.62
2018-11-26T18:17:38.416Z,75.24
2018-11-26T18:20:10.422Z,75.30
2018-11-26T18:22:38.594Z,75.36
2018-11-26T18:25:08.389Z,75.11
2018-11-26T18:27:36.977Z,74.97
2018-11-26T18:30:12.152Z,74.56
2018-11-26T18:32:40.346Z,74.53
2018-11-26T18:35:08.764Z,74.47
2018-11-26T18:37:36.959Z,74.93
2018-11-26T18:40:07.177Z,74.83
2018-11-26T18:42:35.338Z,74.40
2018-11-26T18:45:03.570Z,74.41
2018-11-26T18:47:31.749Z,74.61
2018-11-26T18:49:59.941Z,74.91
2018-11-26T18:52:28.104Z,75.18
2018-11-26T18:54:56.285Z,75.17
2018-11-26T18:57:24.575Z,75.26
2018-11-26T18:59:53.133Z,75.76
2018-11-26T19:02:21.947Z,75.18
2018-11-26T19:04:50.268Z,75.14
2018-11-26T19:07:18.756Z,75.39
2018-11-26T19:09:47.160Z,75.10
2018-11-26T19:12:15.562Z,75.00
2018-11-26T19:14:45.715Z,75.11
2018-11-26T19:17:14.339Z,75.41
2018-11-26T19:19:42.715Z,75.26
2018-11-26T19:22:11.155Z,75.03
2018-11-26T19:24:39.663Z,75.40
2018-11-26T19:27:08.496Z,74.50
2018-11-26T19:29:36.846Z,74.60
2018-11-26T19:32:06.046Z,74.45
2018-11-26T19:34:34.360Z,74.13
2018-11-26T19:37:02.851Z,74.64
2018-11-26T19:39:31.420Z,74.61
2018-11-26T19:41:59.848Z,74.52
2018-11-26T19:44:28.244Z,74.27
2018-11-26T19:46:56.909Z,73.94
2018-11-26T19:49:25.328Z,74.24
2018-11-26T19:51:54.089Z,74.42
2018-11-26T19:54:22.699Z,74.49
2018-11-26T19:56:51.250Z,74.08
2018-11-26T19:59:19.673Z,73.60
2018-11-26T20:01:48.024Z,73.86
2018-11-26T20:04:26.282Z,74.29
2018-11-26T20:06:54.650Z,73.89
2018-11-26T20:09:22.998Z,74.19
2018-11-26T20:11:51.356Z,74.33
2018-11-26T20:14:25.596Z,74.72
2018-11-26T20:16:48.967Z,74.30
2018-11-26T20:19:17.473Z,74.67
2018-11-26T20:21:45.673Z,75.10
2018-11-26T20:24:14.059Z,75.26
2018-11-26T20:26:42.388Z,75.34
2018-11-26T20:29:10.577Z,75.29
2018-11-26T20:31:38.935Z,75.12
2018-11-26T20:34:07.390Z,75.37
2018-11-26T20:36:35.788Z,74.62
2018-11-26T20:39:05.508Z,74.83
2018-11-26T20:41:33.873Z,75.29
2018-11-26T20:44:02.150Z,75.52
2018-11-26T20:46:30.368Z,75.19
2018-11-26T20:48:58.640Z,75.16
2018-11-26T20:51:27.053Z,75.12
2018-11-26T20:53:55.369Z,75.36
2018-11-26T20:56:23.683Z,75.36
2018-11-26T20:58:51.974Z,75.13
2018-11-26T21:01:20.174Z,74.84
2018-11-26T21:03:48.432Z,75.21
2018-11-26T21:06:16.854Z,75.02
2018-11-26T21:08:45.334Z,75.15
2018-11-26T21:11:14.948Z,74.56
2018-11-26T21:13:43.289Z,74.45
2018-11-26T21:16:12.291Z,74.29
2018-11-26T21:18:40.642Z,74.46
2018-11-26T21:21:08.937Z,74.26
2018-11-26T21:23:37.228Z,74.21
2018-11-26T21:26:07.705Z,74.15
2018-11-26T21:28:36.001Z,73.79
2018-11-26T21:31:04.235Z,73.93
2018-11-26T21:33:32.506Z,73.93
2018-11-26T21:36:00.696Z,73.98
2018-11-26T21:38:28.941Z,74.20
2018-11-26T21:40:57.154Z,73.89
2018-11-26T21:43:25.346Z,73.58
2018-11-26T21:45:56.294Z,73.75
2018-11-26T21:48:24.501Z,73.46
2018-11-26T21:50:52.698Z,73.45
2018-11-26T21:53:20.874Z,73.60
2018-11-26T21:55:49.101Z,73.72
2018-11-26T21:58:17.307Z,73.69
2018-11-26T22:00:46.064Z,73.76
2018-11-26T22:03:14.894Z,73.25
2018-11-26T22:05:43.905Z,73.23
2018-11-26T22:08:12.567Z,73.01
2018-11-26T22:10:41.922Z,72.96
2018-11-26T22:13:12.269Z,72.92
2018-11-26T22:15:40.484Z,72.61
2018-11-26T22:18:09.101Z,72.53
2018-11-26T22:20:37.305Z,72.65
2018-11-26T22:23:06.210Z,72.82
2018-11-26T22:25:34.450Z,72.67
2018-11-26T22:28:03.173Z,72.89
2018-11-26T22:30:32.684Z,73.02
2018-11-26T22:33:00.938Z,73.19
2018-11-26T22:35:29.129Z,73.45
2018-11-26T22:37:57.310Z,73.10
2018-11-26T22:40:26.420Z,73.26
2018-11-26T22:42:54.657Z,73.77
2018-11-26T22:45:23.962Z,73.88
2018-11-26T22:47:55.500Z,73.27
2018-11-26T22:50:23.706Z,73.63
2018-11-26T22:52:51.905Z,73.55
2018-11-26T22:55:20.063Z,73.46
2018-11-26T22:57:48.284Z,73.39
2018-11-26T23:00:26.630Z,73.88
2018-11-26T23:02:56.953Z,73.61
2018-11-26T23:05:25.126Z,73.71
2018-11-26T23:07:53.317Z,73.47
2018-11-26T23:10:21.548Z,73.63
2018-11-26T23:12:49.739Z,72.72
2018-11-26T23:15:18.317Z,72.87
2018-11-26T23:17:47.081Z,72.56
2018-11-26T23:20:19.142Z,72.43
2018-11-26T23:22:47.352Z,72.20
2018-11-26T23:25:16.521Z,72.29
2018-11-26T23:27:44.772Z,72.54
2018-11-26T23:30:17.924Z,72.68
2018-11-26T23:32:47.435Z,72.44
2018-11-26T23:35:15.645Z,72.87
2018-11-26T23:37:43.843Z,73.42
2018-11-26T23:40:12.778Z,73.25
2018-11-26T23:42:40.994Z,72.99
2018-11-26T23:45:13.665Z,73.15
2018-11-26T23:47:41.861Z,73.37
2018-11-26T23:50:11.084Z,73.05
2018-11-26T23:52:39.785Z,73.20
2018-11-26T23:55:09.295Z,73.67
2018-11-26T23:57:37.456Z,74.05
